sensor_id;sensor_type;location;lat;lon;timestamp;temperature;humidity
3684;DHT22;1858;48.716;9.648;2023-06-19T00:02:25;23.40;1.00
3684;DHT22;1858;48.716;9.648;2023-06-19T00:04:53;23.40;1.00
3684;DHT22;1858;48.716;9.648;2023-06-19T00:07:21;23.40;1.00
3684;DHT22;1858;48.716;9.648;2023-06-19T00:09:50;23.30;1.00
3684;DHT22;1858;48.716;9.648;2023-06-19T00:12:18;23.20;1.00
3684;DHT22;1858;48.716;9.648;2023-06-19T00:14:46;23.30;1.00
3684;DHT22;1858;48.716;9.648;2023-06-19T00:17:15;23.30;1.00
3684;DHT22;1858;48.716;9.648;2023-06-19T00:19:44;23.30;1.00
3684;DHT22;1858;48.716;9.648;2023-06-19T00:22:12;23.40;1.00
3684;DHT22;1858;48.716;9.648;2023-06-19T00:24:41;23.40;1.00
3684;DHT22;1858;48.716;9.648;2023-06-19T00:27:09;23.40;1.00
3684;DHT22;1858;48.716;9.648;2023-06-19T00:29:38;23.40;1.00
3684;DHT22;1858;48.716;9.648;2023-06-19T00:32:25;23.40;1.00
3684;DHT22;1858;48.716;9.648;2023-06-19T00:35:14;23.40;1.00
3684;DHT22;1858;48.716;9.648;2023-06-19T00:37:42;23.40;1.00
3684;DHT22;1858;48.716;9.648;2023-06-19T00:40:26;23.30;1.00
3684;DHT22;1858;48.716;9.648;2023-06-19T00:42:56;23.30;1.00
3684;DHT22;1858;48.716;9.648;2023-06-19T00:45:44;23.20;1.00
3684;DHT22;1858;48.716;9.648;2023-06-19T00:48:12;23.10;1.00
3684;DHT22;1858;48.716;9.648;2023-06-19T00:50:41;23.10;1.00
3684;DHT22;1858;48.716;9.648;2023-06-19T00:53:09;23.10;1.00
3684;DHT22;1858;48.716;9.648;2023-06-19T00:55:39;23.10;1.00
3684;DHT22;1858;48.716;9.648;2023-06-19T00:58:07;23.10;1.00
3684;DHT22;1858;48.716;9.648;2023-06-19T01:00:36;23.10;1.00
3684;DHT22;1858;48.716;9.648;2023-06-19T01:03:04;23.00;1.00
3684;DHT22;1858;48.716;9.648;2023-06-19T01:05:33;23.00;1.00
3684;DHT22;1858;48.716;9.648;2023-06-19T01:08:22;23.10;1.00
3684;DHT22;1858;48.716;9.648;2023-06-19T01:10:52;23.00;1.00
3684;DHT22;1858;48.716;9.648;2023-06-19T01:13:45;23.00;1.00
3684;DHT22;1858;48.716;9.648;2023-06-19T01:18:59;23.00;1.00
3684;DHT22;1858;48.716;9.648;2023-06-19T01:21:28;23.00;1.00
3684;DHT22;1858;48.716;9.648;2023-06-19T01:23:57;22.90;1.00
3684;DHT22;1858;48.716;9.648;2023-06-19T01:26:25;22.90;1.00
3684;DHT22;1858;48.716;9.648;2023-06-19T01:28:55;22.90;1.00
3684;DHT22;1858;48.716;9.648;2023-06-19T01:32:02;22.90;1.00
3684;DHT22;1858;48.716;9.648;2023-06-19T01:34:08;22.90;1.00
3684;DHT22;1858;48.716;9.648;2023-06-19T01:36:37;22.80;1.00
3684;DHT22;1858;48.716;9.648;2023-06-19T01:39:26;22.80;1.00
3684;DHT22;1858;48.716;9.648;2023-06-19T01:41:55;22.80;1.00
3684;DHT22;1858;48.716;9.648;2023-06-19T01:44:24;22.80;1.00
3684;DHT22;1858;48.716;9.648;2023-06-19T01:46:52;22.80;1.00
3684;DHT22;1858;48.716;9.648;2023-06-19T01:49:21;22.60;1.00
3684;DHT22;1858;48.716;9.648;2023-06-19T01:51:49;22.40;1.00
3684;DHT22;1858;48.716;9.648;2023-06-19T01:54:17;22.40;1.00
3684;DHT22;1858;48.716;9.648;2023-06-19T01:56:46;22.50;1.00
3684;DHT22;1858;48.716;9.648;2023-06-19T01:59:14;22.40;1.00
3684;DHT22;1858;48.716;9.648;2023-06-19T02:01:43;22.40;1.00
3684;DHT22;1858;48.716;9.648;2023-06-19T02:04:11;22.40;1.00
3684;DHT22;1858;48.716;9.648;2023-06-19T02:06:39;22.40;1.00
3684;DHT22;1858;48.716;9.648;2023-06-19T02:09:08;22.40;1.00
3684;DHT22;1858;48.716;9.648;2023-06-19T02:11:37;22.30;1.00
3684;DHT22;1858;48.716;9.648;2023-06-19T02:14:05;22.40;1.00
3684;DHT22;1858;48.716;9.648;2023-06-19T02:16:33;22.40;1.00
3684;DHT22;1858;48.716;9.648;2023-06-19T02:19:02;22.50;1.00
3684;DHT22;1858;48.716;9.648;2023-06-19T02:21:30;22.40;1.00
3684;DHT22;1858;48.716;9.648;2023-06-19T02:23:58;22.20;1.00
3684;DHT22;1858;48.716;9.648;2023-06-19T02:26:27;22.20;1.00
3684;DHT22;1858;48.716;9.648;2023-06-19T02:28:56;22.30;1.00
3684;DHT22;1858;48.716;9.648;2023-06-19T02:31:25;22.30;1.00
3684;DHT22;1858;48.716;9.648;2023-06-19T02:33:53;22.30;1.00
3684;DHT22;1858;48.716;9.648;2023-06-19T02:36:22;22.30;1.00
3684;DHT22;1858;48.716;9.648;2023-06-19T02:38:50;22.30;1.00
3684;DHT22;1858;48.716;9.648;2023-06-19T02:41:18;22.30;1.00
3684;DHT22;1858;48.716;9.648;2023-06-19T02:43:47;22.20;1.00
3684;DHT22;1858;48.716;9.648;2023-06-19T02:46:16;22.10;1.00
3684;DHT22;1858;48.716;9.648;2023-06-19T02:48:45;22.00;1.00
3684;DHT22;1858;48.716;9.648;2023-06-19T02:51:13;22.10;1.00
3684;DHT22;1858;48.716;9.648;2023-06-19T02:53:42;22.10;1.00
3684;DHT22;1858;48.716;9.648;2023-06-19T02:56:14;22.10;1.00
3684;DHT22;1858;48.716;9.648;2023-06-19T02:58:42;22.10;1.00
3684;DHT22;1858;48.716;9.648;2023-06-19T03:01:10;22.00;1.00
3684;DHT22;1858;48.716;9.648;2023-06-19T03:03:39;22.00;1.00
3684;DHT22;1858;48.716;9.648;2023-06-19T03:06:08;22.00;1.00
3684;DHT22;1858;48.716;9.648;2023-06-19T03:11:26;21.90;1.00
3684;DHT22;1858;48.716;9.648;2023-06-19T03:13:55;21.90;1.00
3684;DHT22;1858;48.716;9.648;2023-06-19T03:16:24;21.80;1.00
3684;DHT22;1858;48.716;9.648;2023-06-19T03:18:53;21.70;1.00
3684;DHT22;1858;48.716;9.648;2023-06-19T03:21:21;21.80;1.00
3684;DHT22;1858;48.716;9.648;2023-06-19T03:23:50;21.70;1.00
3684;DHT22;1858;48.716;9.648;2023-06-19T03:26:21;21.70;1.00
3684;DHT22;1858;48.716;9.648;2023-06-19T03:28:49;21.60;1.00
3684;DHT22;1858;48.716;9.648;2023-06-19T03:31:18;21.70;1.00
3684;DHT22;1858;48.716;9.648;2023-06-19T03:33:47;21.70;1.00
3684;DHT22;1858;48.716;9.648;2023-06-19T03:36:15;21.60;1.00
3684;DHT22;1858;48.716;9.648;2023-06-19T03:38:44;21.60;1.00
3684;DHT22;1858;48.716;9.648;2023-06-19T03:41:31;21.60;1.00
3684;DHT22;1858;48.716;9.648;2023-06-19T03:43:59;21.60;1.00
3684;DHT22;1858;48.716;9.648;2023-06-19T03:46:28;21.60;1.00
3684;DHT22;1858;48.716;9.648;2023-06-19T03:48:56;21.60;1.00
3684;DHT22;1858;48.716;9.648;2023-06-19T03:51:25;21.60;1.00
3684;DHT22;1858;48.716;9.648;2023-06-19T03:53:53;21.60;1.00
3684;DHT22;1858;48.716;9.648;2023-06-19T03:56:21;21.60;1.00
3684;DHT22;1858;48.716;9.648;2023-06-19T03:58:50;21.70;1.00
3684;DHT22;1858;48.716;9.648;2023-06-19T04:01:18;21.70;1.00
3684;DHT22;1858;48.716;9.648;2023-06-19T04:03:47;21.70;1.00
3684;DHT22;1858;48.716;9.648;2023-06-19T04:06:15;21.80;1.00
3684;DHT22;1858;48.716;9.648;2023-06-19T04:08:44;21.90;1.00
3684;DHT22;1858;48.716;9.648;2023-06-19T04:11:32;21.90;1.00
3684;DHT22;1858;48.716;9.648;2023-06-19T04:14:00;21.90;1.00
3684;DHT22;1858;48.716;9.648;2023-06-19T04:16:28;22.00;1.00
3684;DHT22;1858;48.716;9.648;2023-06-19T04:18:57;22.00;1.00
3684;DHT22;1858;48.716;9.648;2023-06-19T04:21:26;22.00;1.00
3684;DHT22;1858;48.716;9.648;2023-06-19T04:23:54;22.10;1.00
3684;DHT22;1858;48.716;9.648;2023-06-19T04:26:23;22.10;1.00
3684;DHT22;1858;48.716;9.648;2023-06-19T04:28:52;22.20;1.00
3684;DHT22;1858;48.716;9.648;2023-06-19T04:31:20;22.10;1.00
3684;DHT22;1858;48.716;9.648;2023-06-19T04:33:49;22.20;1.00
3684;DHT22;1858;48.716;9.648;2023-06-19T04:36:17;22.30;1.00
3684;DHT22;1858;48.716;9.648;2023-06-19T04:38:46;22.50;1.00
3684;DHT22;1858;48.716;9.648;2023-06-19T04:41:14;22.60;1.00
3684;DHT22;1858;48.716;9.648;2023-06-19T04:43:42;22.60;1.00
3684;DHT22;1858;48.716;9.648;2023-06-19T04:46:11;22.70;1.00
3684;DHT22;1858;48.716;9.648;2023-06-19T04:48:39;22.80;1.00
3684;DHT22;1858;48.716;9.648;2023-06-19T04:51:08;22.90;1.00
3684;DHT22;1858;48.716;9.648;2023-06-19T04:53:37;22.90;1.00
3684;DHT22;1858;48.716;9.648;2023-06-19T04:56:05;22.90;1.00
3684;DHT22;1858;48.716;9.648;2023-06-19T04:58:33;23.00;1.00
3684;DHT22;1858;48.716;9.648;2023-06-19T05:01:02;23.10;1.00
3684;DHT22;1858;48.716;9.648;2023-06-19T05:03:30;23.20;1.00
3684;DHT22;1858;48.716;9.648;2023-06-19T05:05:59;23.30;1.00
3684;DHT22;1858;48.716;9.648;2023-06-19T05:08:27;23.40;1.00
3684;DHT22;1858;48.716;9.648;2023-06-19T05:11:15;23.50;1.00
3684;DHT22;1858;48.716;9.648;2023-06-19T05:13:43;23.50;1.00
3684;DHT22;1858;48.716;9.648;2023-06-19T05:16:12;23.60;1.00
3684;DHT22;1858;48.716;9.648;2023-06-19T05:19:01;23.60;1.00
3684;DHT22;1858;48.716;9.648;2023-06-19T05:21:29;23.70;1.00
3684;DHT22;1858;48.716;9.648;2023-06-19T05:23:58;23.60;1.00
3684;DHT22;1858;48.716;9.648;2023-06-19T05:26:26;23.60;1.00
3684;DHT22;1858;48.716;9.648;2023-06-19T05:28:55;23.60;1.00
3684;DHT22;1858;48.716;9.648;2023-06-19T05:31:23;23.70;1.00
3684;DHT22;1858;48.716;9.648;2023-06-19T05:33:51;23.70;1.00
3684;DHT22;1858;48.716;9.648;2023-06-19T05:36:20;23.80;1.00
3684;DHT22;1858;48.716;9.648;2023-06-19T05:39:08;23.80;1.00
3684;DHT22;1858;48.716;9.648;2023-06-19T05:41:37;23.90;1.00
3684;DHT22;1858;48.716;9.648;2023-06-19T05:44:05;23.90;1.00
3684;DHT22;1858;48.716;9.648;2023-06-19T05:46:33;23.90;1.00
3684;DHT22;1858;48.716;9.648;2023-06-19T05:49:03;23.90;1.00
3684;DHT22;1858;48.716;9.648;2023-06-19T05:51:32;24.00;1.00
3684;DHT22;1858;48.716;9.648;2023-06-19T05:54:00;24.20;1.00
3684;DHT22;1858;48.716;9.648;2023-06-19T05:56:37;24.30;1.00
3684;DHT22;1858;48.716;9.648;2023-06-19T05:59:02;24.40;1.00
3684;DHT22;1858;48.716;9.648;2023-06-19T06:01:50;24.40;1.00
3684;DHT22;1858;48.716;9.648;2023-06-19T06:04:20;24.60;1.00
3684;DHT22;1858;48.716;9.648;2023-06-19T06:06:49;24.50;1.00
3684;DHT22;1858;48.716;9.648;2023-06-19T06:09:17;24.70;1.00
3684;DHT22;1858;48.716;9.648;2023-06-19T06:12:06;24.80;1.00
3684;DHT22;1858;48.716;9.648;2023-06-19T06:14:35;25.10;1.00
3684;DHT22;1858;48.716;9.648;2023-06-19T06:17:05;25.40;1.00
3684;DHT22;1858;48.716;9.648;2023-06-19T06:19:33;25.60;1.00
3684;DHT22;1858;48.716;9.648;2023-06-19T06:22:06;25.60;1.00
3684;DHT22;1858;48.716;9.648;2023-06-19T06:24:53;25.60;1.00
3684;DHT22;1858;48.716;9.648;2023-06-19T06:27:22;25.50;1.00
3684;DHT22;1858;48.716;9.648;2023-06-19T06:29:50;25.60;1.00
3684;DHT22;1858;48.716;9.648;2023-06-19T06:32:19;25.60;1.00
3684;DHT22;1858;48.716;9.648;2023-06-19T06:34:47;25.60;1.00
3684;DHT22;1858;48.716;9.648;2023-06-19T06:37:15;25.80;1.00
3684;DHT22;1858;48.716;9.648;2023-06-19T06:39:46;26.20;1.00
3684;DHT22;1858;48.716;9.648;2023-06-19T06:42:14;26.90;1.00
3684;DHT22;1858;48.716;9.648;2023-06-19T06:44:42;27.90;1.00
3684;DHT22;1858;48.716;9.648;2023-06-19T06:47:11;28.60;1.00
3684;DHT22;1858;48.716;9.648;2023-06-19T06:49:39;28.80;1.00
3684;DHT22;1858;48.716;9.648;2023-06-19T06:52:08;29.10;1.00
3684;DHT22;1858;48.716;9.648;2023-06-19T06:54:37;29.10;1.00
3684;DHT22;1858;48.716;9.648;2023-06-19T06:57:05;29.20;1.00
3684;DHT22;1858;48.716;9.648;2023-06-19T06:59:34;29.20;1.00
3684;DHT22;1858;48.716;9.648;2023-06-19T07:05:11;29.20;1.00
3684;DHT22;1858;48.716;9.648;2023-06-19T07:07:40;29.30;1.00
3684;DHT22;1858;48.716;9.648;2023-06-19T07:12:57;30.00;1.00
3684;DHT22;1858;48.716;9.648;2023-06-19T07:15:26;29.90;1.00
3684;DHT22;1858;48.716;9.648;2023-06-19T07:17:55;30.10;1.00
3684;DHT22;1858;48.716;9.648;2023-06-19T07:20:24;30.40;1.00
3684;DHT22;1858;48.716;9.648;2023-06-19T07:22:53;30.60;1.00
3684;DHT22;1858;48.716;9.648;2023-06-19T07:25:23;31.00;1.00
3684;DHT22;1858;48.716;9.648;2023-06-19T07:27:52;31.70;1.00
3684;DHT22;1858;48.716;9.648;2023-06-19T07:30:21;32.90;1.00
3684;DHT22;1858;48.716;9.648;2023-06-19T07:32:49;34.00;1.00
3684;DHT22;1858;48.716;9.648;2023-06-19T07:35:18;35.60;1.00
3684;DHT22;1858;48.716;9.648;2023-06-19T07:37:46;37.10;99.90
3684;DHT22;1858;48.716;9.648;2023-06-19T07:40:14;38.10;99.90
3684;DHT22;1858;48.716;9.648;2023-06-19T07:42:43;38.10;99.90
3684;DHT22;1858;48.716;9.648;2023-06-19T07:45:12;38.50;99.90
3684;DHT22;1858;48.716;9.648;2023-06-19T07:47:41;39.20;99.90
3684;DHT22;1858;48.716;9.648;2023-06-19T07:50:10;39.20;99.90
3684;DHT22;1858;48.716;9.648;2023-06-19T07:52:38;38.70;99.90
3684;DHT22;1858;48.716;9.648;2023-06-19T07:55:07;38.10;99.90
3684;DHT22;1858;48.716;9.648;2023-06-19T07:57:56;37.60;99.90
3684;DHT22;1858;48.716;9.648;2023-06-19T08:00:24;36.80;99.90
3684;DHT22;1858;48.716;9.648;2023-06-19T08:02:53;36.20;99.90
3684;DHT22;1858;48.716;9.648;2023-06-19T08:05:21;36.10;99.90
3684;DHT22;1858;48.716;9.648;2023-06-19T08:08:11;36.60;99.90
3684;DHT22;1858;48.716;9.648;2023-06-19T08:10:39;37.70;99.90
3684;DHT22;1858;48.716;9.648;2023-06-19T08:13:08;37.70;99.90
3684;DHT22;1858;48.716;9.648;2023-06-19T08:15:38;38.30;99.90
3684;DHT22;1858;48.716;9.648;2023-06-19T08:18:07;38.60;99.90
3684;DHT22;1858;48.716;9.648;2023-06-19T08:20:36;38.80;99.90
3684;DHT22;1858;48.716;9.648;2023-06-19T08:23:05;39.10;99.90
3684;DHT22;1858;48.716;9.648;2023-06-19T08:25:33;39.40;99.90
3684;DHT22;1858;48.716;9.648;2023-06-19T08:28:02;39.30;99.90
3684;DHT22;1858;48.716;9.648;2023-06-19T08:30:30;39.20;99.90
3684;DHT22;1858;48.716;9.648;2023-06-19T08:32:59;38.80;99.90
3684;DHT22;1858;48.716;9.648;2023-06-19T08:35:27;38.00;99.90
3684;DHT22;1858;48.716;9.648;2023-06-19T08:37:55;37.10;99.90
3684;DHT22;1858;48.716;9.648;2023-06-19T08:40:24;36.50;99.90
3684;DHT22;1858;48.716;9.648;2023-06-19T08:43:12;36.10;99.90
3684;DHT22;1858;48.716;9.648;2023-06-19T08:45:40;35.70;99.90
3684;DHT22;1858;48.716;9.648;2023-06-19T08:48:13;35.20;99.90
3684;DHT22;1858;48.716;9.648;2023-06-19T08:50:59;35.10;99.90
3684;DHT22;1858;48.716;9.648;2023-06-19T08:53:28;35.10;99.90
3684;DHT22;1858;48.716;9.648;2023-06-19T08:55:57;35.20;99.90
3684;DHT22;1858;48.716;9.648;2023-06-19T08:58:27;35.30;99.90
3684;DHT22;1858;48.716;9.648;2023-06-19T09:01:18;35.90;99.90
3684;DHT22;1858;48.716;9.648;2023-06-19T09:03:50;36.40;99.90
3684;DHT22;1858;48.716;9.648;2023-06-19T09:06:19;36.90;99.90
3684;DHT22;1858;48.716;9.648;2023-06-19T09:08:59;38.20;99.90
3684;DHT22;1858;48.716;9.648;2023-06-19T09:11:28;39.70;99.90
3684;DHT22;1858;48.716;9.648;2023-06-19T09:13:57;41.30;99.90
3684;DHT22;1858;48.716;9.648;2023-06-19T09:16:40;41.80;99.90
3684;DHT22;1858;48.716;9.648;2023-06-19T09:19:08;42.30;99.90
3684;DHT22;1858;48.716;9.648;2023-06-19T09:21:37;43.20;99.90
3684;DHT22;1858;48.716;9.648;2023-06-19T09:27:05;44.00;99.90
3684;DHT22;1858;48.716;9.648;2023-06-19T09:29:26;43.60;99.90
3684;DHT22;1858;48.716;9.648;2023-06-19T09:31:55;44.50;99.90
3684;DHT22;1858;48.716;9.648;2023-06-19T09:34:23;45.00;99.90
3684;DHT22;1858;48.716;9.648;2023-06-19T09:36:52;44.50;99.90
3684;DHT22;1858;48.716;9.648;2023-06-19T09:39:22;43.70;99.90
3684;DHT22;1858;48.716;9.648;2023-06-19T09:41:52;43.60;99.90
3684;DHT22;1858;48.716;9.648;2023-06-19T09:44:22;42.90;99.90
3684;DHT22;1858;48.716;9.648;2023-06-19T09:46:53;41.80;99.90
3684;DHT22;1858;48.716;9.648;2023-06-19T09:49:24;40.70;99.90
3684;DHT22;1858;48.716;9.648;2023-06-19T09:52:13;39.80;99.90
3684;DHT22;1858;48.716;9.648;2023-06-19T09:54:43;40.40;99.90
3684;DHT22;1858;48.716;9.648;2023-06-19T09:57:12;41.30;99.90
3684;DHT22;1858;48.716;9.648;2023-06-19T09:59:41;42.00;99.90
3684;DHT22;1858;48.716;9.648;2023-06-19T10:02:11;43.40;99.90
3684;DHT22;1858;48.716;9.648;2023-06-19T10:04:53;44.10;99.90
3684;DHT22;1858;48.716;9.648;2023-06-19T10:07:26;43.40;99.90
3684;DHT22;1858;48.716;9.648;2023-06-19T10:10:04;44.10;99.90
3684;DHT22;1858;48.716;9.648;2023-06-19T10:12:45;44.90;99.90
3684;DHT22;1858;48.716;9.648;2023-06-19T10:15:21;45.30;99.90
3684;DHT22;1858;48.716;9.648;2023-06-19T10:17:51;46.00;99.90
3684;DHT22;1858;48.716;9.648;2023-06-19T10:20:35;46.80;99.90
3684;DHT22;1858;48.716;9.648;2023-06-19T10:23:17;47.30;99.90
3684;DHT22;1858;48.716;9.648;2023-06-19T10:26:05;47.60;99.90
3684;DHT22;1858;48.716;9.648;2023-06-19T10:28:34;47.50;99.90
3684;DHT22;1858;48.716;9.648;2023-06-19T10:31:05;47.50;99.90
3684;DHT22;1858;48.716;9.648;2023-06-19T10:33:35;47.30;99.90
3684;DHT22;1858;48.716;9.648;2023-06-19T10:36:20;46.70;99.90
3684;DHT22;1858;48.716;9.648;2023-06-19T10:38:50;46.00;99.90
3684;DHT22;1858;48.716;9.648;2023-06-19T10:41:20;44.90;99.90
3684;DHT22;1858;48.716;9.648;2023-06-19T10:44:05;44.20;99.90
3684;DHT22;1858;48.716;9.648;2023-06-19T10:46:36;43.20;99.90
3684;DHT22;1858;48.716;9.648;2023-06-19T10:49:06;41.90;99.90
3684;DHT22;1858;48.716;9.648;2023-06-19T10:51:38;41.00;99.90
3684;DHT22;1858;48.716;9.648;2023-06-19T10:54:07;40.20;99.90
3684;DHT22;1858;48.716;9.648;2023-06-19T10:56:36;40.10;99.90
3684;DHT22;1858;48.716;9.648;2023-06-19T10:59:06;39.90;99.90
3684;DHT22;1858;48.716;9.648;2023-06-19T11:01:47;39.70;99.90
3684;DHT22;1858;48.716;9.648;2023-06-19T11:04:19;39.80;99.90
3684;DHT22;1858;48.716;9.648;2023-06-19T11:06:49;39.50;99.90
3684;DHT22;1858;48.716;9.648;2023-06-19T11:09:18;39.20;99.90
3684;DHT22;1858;48.716;9.648;2023-06-19T11:11:48;38.80;99.90
3684;DHT22;1858;48.716;9.648;2023-06-19T11:14:17;38.60;99.90
3684;DHT22;1858;48.716;9.648;2023-06-19T11:16:47;38.20;99.90
3684;DHT22;1858;48.716;9.648;2023-06-19T11:19:34;38.00;99.90
3684;DHT22;1858;48.716;9.648;2023-06-19T11:22:05;37.70;99.90
3684;DHT22;1858;48.716;9.648;2023-06-19T11:24:35;37.40;99.90
3684;DHT22;1858;48.716;9.648;2023-06-19T11:27:03;37.20;99.90
3684;DHT22;1858;48.716;9.648;2023-06-19T11:29:34;36.80;99.90
3684;DHT22;1858;48.716;9.648;2023-06-19T11:32:08;36.70;99.90
3684;DHT22;1858;48.716;9.648;2023-06-19T11:34:38;36.50;99.90
3684;DHT22;1858;48.716;9.648;2023-06-19T11:37:16;36.10;99.90
3684;DHT22;1858;48.716;9.648;2023-06-19T11:40:08;35.90;99.90
3684;DHT22;1858;48.716;9.648;2023-06-19T11:42:52;35.70;99.90
3684;DHT22;1858;48.716;9.648;2023-06-19T11:45:21;35.30;99.90
3684;DHT22;1858;48.716;9.648;2023-06-19T11:47:50;35.20;99.90
3684;DHT22;1858;48.716;9.648;2023-06-19T11:50:18;35.10;99.90
3684;DHT22;1858;48.716;9.648;2023-06-19T11:52:48;35.10;99.90
3684;DHT22;1858;48.716;9.648;2023-06-19T11:55:17;35.20;99.90
3684;DHT22;1858;48.716;9.648;2023-06-19T11:57:46;35.30;99.90
3684;DHT22;1858;48.716;9.648;2023-06-19T12:03:25;35.30;99.90
3684;DHT22;1858;48.716;9.648;2023-06-19T12:05:54;35.40;99.90
3684;DHT22;1858;48.716;9.648;2023-06-19T12:08:22;35.50;99.90
3684;DHT22;1858;48.716;9.648;2023-06-19T12:10:51;35.60;99.90
3684;DHT22;1858;48.716;9.648;2023-06-19T12:13:20;35.50;99.90
3684;DHT22;1858;48.716;9.648;2023-06-19T12:15:48;35.40;99.90
3684;DHT22;1858;48.716;9.648;2023-06-19T12:18:17;35.40;99.90
3684;DHT22;1858;48.716;9.648;2023-06-19T12:20:45;35.10;99.90
3684;DHT22;1858;48.716;9.648;2023-06-19T12:23:14;35.10;99.90
3684;DHT22;1858;48.716;9.648;2023-06-19T12:25:42;35.10;99.90
3684;DHT22;1858;48.716;9.648;2023-06-19T12:28:11;35.00;99.90
3684;DHT22;1858;48.716;9.648;2023-06-19T12:30:41;34.90;99.90
3684;DHT22;1858;48.716;9.648;2023-06-19T12:33:09;34.70;99.90
3684;DHT22;1858;48.716;9.648;2023-06-19T12:35:57;34.60;99.90
3684;DHT22;1858;48.716;9.648;2023-06-19T12:38:25;34.50;99.90
3684;DHT22;1858;48.716;9.648;2023-06-19T12:40:54;34.40;99.90
3684;DHT22;1858;48.716;9.648;2023-06-19T12:43:22;34.50;99.90
3684;DHT22;1858;48.716;9.648;2023-06-19T12:45:51;34.30;99.90
3684;DHT22;1858;48.716;9.648;2023-06-19T12:48:20;34.10;99.90
3684;DHT22;1858;48.716;9.648;2023-06-19T12:50:49;34.00;99.90
3684;DHT22;1858;48.716;9.648;2023-06-19T12:53:17;33.80;99.90
3684;DHT22;1858;48.716;9.648;2023-06-19T12:55:46;33.60;99.90
3684;DHT22;1858;48.716;9.648;2023-06-19T12:58:15;33.80;99.90
3684;DHT22;1858;48.716;9.648;2023-06-19T13:00:43;33.80;99.90
3684;DHT22;1858;48.716;9.648;2023-06-19T13:03:11;33.80;99.90
3684;DHT22;1858;48.716;9.648;2023-06-19T13:05:40;33.70;99.90
3684;DHT22;1858;48.716;9.648;2023-06-19T13:08:09;33.80;99.90
3684;DHT22;1858;48.716;9.648;2023-06-19T13:10:37;33.80;99.90
3684;DHT22;1858;48.716;9.648;2023-06-19T13:13:06;33.80;99.90
3684;DHT22;1858;48.716;9.648;2023-06-19T13:15:53;33.90;99.90
3684;DHT22;1858;48.716;9.648;2023-06-19T13:18:22;34.00;99.90
3684;DHT22;1858;48.716;9.648;2023-06-19T13:20:50;34.00;99.90
3684;DHT22;1858;48.716;9.648;2023-06-19T13:23:19;34.00;99.90
3684;DHT22;1858;48.716;9.648;2023-06-19T13:26:07;34.00;99.90
3684;DHT22;1858;48.716;9.648;2023-06-19T13:28:36;34.00;99.90
3684;DHT22;1858;48.716;9.648;2023-06-19T13:31:05;34.20;99.90
3684;DHT22;1858;48.716;9.648;2023-06-19T13:33:33;34.30;99.90
3684;DHT22;1858;48.716;9.648;2023-06-19T13:36:02;34.40;99.90
3684;DHT22;1858;48.716;9.648;2023-06-19T13:38:30;34.40;99.90
3684;DHT22;1858;48.716;9.648;2023-06-19T13:40:59;34.40;99.90
3684;DHT22;1858;48.716;9.648;2023-06-19T13:43:27;34.50;99.90
3684;DHT22;1858;48.716;9.648;2023-06-19T13:45:56;34.50;99.90
3684;DHT22;1858;48.716;9.648;2023-06-19T13:48:25;34.50;99.90
3684;DHT22;1858;48.716;9.648;2023-06-19T13:50:53;34.60;99.90
3684;DHT22;1858;48.716;9.648;2023-06-19T13:53:22;34.30;99.90
3684;DHT22;1858;48.716;9.648;2023-06-19T13:55:51;34.20;99.90
3684;DHT22;1858;48.716;9.648;2023-06-19T13:58:19;34.30;99.90
3684;DHT22;1858;48.716;9.648;2023-06-19T14:01:07;34.30;99.90
3684;DHT22;1858;48.716;9.648;2023-06-19T14:03:37;34.30;99.90
3684;DHT22;1858;48.716;9.648;2023-06-19T14:06:08;34.20;99.90
3684;DHT22;1858;48.716;9.648;2023-06-19T14:08:37;34.10;99.90
3684;DHT22;1858;48.716;9.648;2023-06-19T14:11:07;34.00;99.90
3684;DHT22;1858;48.716;9.648;2023-06-19T14:13:35;33.80;99.90
3684;DHT22;1858;48.716;9.648;2023-06-19T14:16:04;33.70;99.90
3684;DHT22;1858;48.716;9.648;2023-06-19T14:18:32;33.50;99.90
3684;DHT22;1858;48.716;9.648;2023-06-19T14:21:02;33.60;99.90
3684;DHT22;1858;48.716;9.648;2023-06-19T14:23:31;33.60;99.90
3684;DHT22;1858;48.716;9.648;2023-06-19T14:26:02;33.50;99.90
3684;DHT22;1858;48.716;9.648;2023-06-19T14:28:30;33.60;99.90
3684;DHT22;1858;48.716;9.648;2023-06-19T14:30:58;33.60;99.90
3684;DHT22;1858;48.716;9.648;2023-06-19T14:33:27;33.70;99.90
3684;DHT22;1858;48.716;9.648;2023-06-19T14:35:55;33.50;99.90
3684;DHT22;1858;48.716;9.648;2023-06-19T14:38:24;33.40;99.90
3684;DHT22;1858;48.716;9.648;2023-06-19T14:40:54;33.30;99.90
3684;DHT22;1858;48.716;9.648;2023-06-19T14:43:24;33.30;99.90
3684;DHT22;1858;48.716;9.648;2023-06-19T14:45:53;33.40;99.90
3684;DHT22;1858;48.716;9.648;2023-06-19T14:48:22;33.40;99.90
3684;DHT22;1858;48.716;9.648;2023-06-19T14:50:50;33.40;99.90
3684;DHT22;1858;48.716;9.648;2023-06-19T14:53:19;33.40;99.90
3684;DHT22;1858;48.716;9.648;2023-06-19T14:55:47;33.20;99.90
3684;DHT22;1858;48.716;9.648;2023-06-19T14:58:15;33.20;99.90
3684;DHT22;1858;48.716;9.648;2023-06-19T15:00:44;33.10;99.90
3684;DHT22;1858;48.716;9.648;2023-06-19T15:03:12;32.90;99.90
3684;DHT22;1858;48.716;9.648;2023-06-19T15:05:41;33.00;99.90
3684;DHT22;1858;48.716;9.648;2023-06-19T15:08:09;33.00;99.90
3684;DHT22;1858;48.716;9.648;2023-06-19T15:10:38;33.00;99.90
3684;DHT22;1858;48.716;9.648;2023-06-19T15:13:06;32.90;99.90
3684;DHT22;1858;48.716;9.648;2023-06-19T15:15:35;32.90;99.90
3684;DHT22;1858;48.716;9.648;2023-06-19T15:18:03;32.80;99.90
3684;DHT22;1858;48.716;9.648;2023-06-19T15:20:31;32.80;99.90
3684;DHT22;1858;48.716;9.648;2023-06-19T15:23:00;32.80;99.90
3684;DHT22;1858;48.716;9.648;2023-06-19T15:25:28;32.80;99.90
3684;DHT22;1858;48.716;9.648;2023-06-19T15:27:57;32.70;99.90
3684;DHT22;1858;48.716;9.648;2023-06-19T15:30:25;32.70;99.90
3684;DHT22;1858;48.716;9.648;2023-06-19T15:32:53;32.80;99.90
3684;DHT22;1858;48.716;9.648;2023-06-19T15:35:22;32.90;99.90
3684;DHT22;1858;48.716;9.648;2023-06-19T15:37:50;32.90;99.90
3684;DHT22;1858;48.716;9.648;2023-06-19T15:40:19;32.80;99.90
3684;DHT22;1858;48.716;9.648;2023-06-19T15:42:47;32.80;99.90
3684;DHT22;1858;48.716;9.648;2023-06-19T15:45:16;32.80;99.90
3684;DHT22;1858;48.716;9.648;2023-06-19T15:47:44;32.80;99.90
3684;DHT22;1858;48.716;9.648;2023-06-19T15:50:13;32.70;99.90
3684;DHT22;1858;48.716;9.648;2023-06-19T15:52:41;32.50;99.90
3684;DHT22;1858;48.716;9.648;2023-06-19T15:55:10;32.50;99.90
3684;DHT22;1858;48.716;9.648;2023-06-19T15:57:58;32.50;99.90
3684;DHT22;1858;48.716;9.648;2023-06-19T16:00:26;32.50;99.90
3684;DHT22;1858;48.716;9.648;2023-06-19T16:02:55;32.60;99.90
3684;DHT22;1858;48.716;9.648;2023-06-19T16:05:23;32.70;99.90
3684;DHT22;1858;48.716;9.648;2023-06-19T16:07:53;32.70;99.90
3684;DHT22;1858;48.716;9.648;2023-06-19T16:10:21;32.70;99.90
3684;DHT22;1858;48.716;9.648;2023-06-19T16:12:50;32.70;99.90
3684;DHT22;1858;48.716;9.648;2023-06-19T16:15:18;32.70;99.90
3684;DHT22;1858;48.716;9.648;2023-06-19T16:17:48;32.60;99.90
3684;DHT22;1858;48.716;9.648;2023-06-19T16:20:18;32.60;99.90
3684;DHT22;1858;48.716;9.648;2023-06-19T16:22:47;32.50;99.90
3684;DHT22;1858;48.716;9.648;2023-06-19T16:25:17;32.40;99.90
3684;DHT22;1858;48.716;9.648;2023-06-19T16:27:45;32.20;99.90
3684;DHT22;1858;48.716;9.648;2023-06-19T16:30:14;32.10;99.90
3684;DHT22;1858;48.716;9.648;2023-06-19T16:32:47;31.90;99.90
3684;DHT22;1858;48.716;9.648;2023-06-19T16:35:12;31.80;99.90
3684;DHT22;1858;48.716;9.648;2023-06-19T16:37:42;31.70;99.90
3684;DHT22;1858;48.716;9.648;2023-06-19T16:42:58;31.50;99.90
3684;DHT22;1858;48.716;9.648;2023-06-19T16:45:27;31.20;1.00
3684;DHT22;1858;48.716;9.648;2023-06-19T16:47:55;30.90;1.00
3684;DHT22;1858;48.716;9.648;2023-06-19T16:50:24;30.60;1.00
3684;DHT22;1858;48.716;9.648;2023-06-19T16:52:53;30.30;1.00